This is the latest recevied weather packets stored in our database for station/object JE7UPL-13. If no packets are shown the sender has not sent any weather packets the latest 10 day(s).
| Time | Temp. | Humidity | Pressure | Rain* | Wind** | Luminosity | Snow |
|---|---|---|---|---|---|---|---|
| 1777582806 | 10.56° C | 74% | 1009.9 hPa | 0 mm | - | - | - |
| 1777581906 | 8.89° C | 82% | 1010.3 hPa | 0 mm | - | - | - |
| 1777581006 | 7.22° C | 84% | 1010.8 hPa | 0 mm | - | - | - |
| 1777580105 | 6.11° C | 84% | 1010.9 hPa | 0 mm | - | - | - |
| 1777579206 | 5.56° C | 83% | 1011.2 hPa | 0 mm | - | - | - |
| 1777578306 | 5.56° C | 83% | 1011.1 hPa | 0 mm | - | - | - |
| 1777577405 | 5.56° C | 81% | 1011.2 hPa | 0 mm | - | - | - |
| 1777576505 | 5.56° C | 81% | 1011.3 hPa | 0 mm | - | - | - |
| 1777575605 | 5° C | 82% | 1011.3 hPa | 0 mm | - | - | - |
| 1777574706 | 5° C | 81% | 1011.5 hPa | 0 mm | - | - | - |
| 1777573806 | 5.56° C | 79% | 1012 hPa | 0 mm | - | - | - |
| 1777572905 | 5.56° C | 79% | 1011.7 hPa | 0 mm | - | - | - |
| 1777572005 | 5.56° C | 78% | 1011.9 hPa | 0 mm | - | - | - |
| 1777571105 | 5.56° C | 77% | 1012.2 hPa | 0 mm | - | - | - |
| 1777570206 | 5.56° C | 77% | 1012.1 hPa | 0 mm | - | - | - |
| 1777569305 | 5.56° C | 76% | 1012.4 hPa | 0 mm | - | - | - |
| 1777568405 | 5.56° C | 74% | 1012.5 hPa | 0 mm | - | - | - |
| 1777567505 | 6.11° C | 73% | 1012.7 hPa | 0 mm | - | - | - |
| 1777566606 | 6.11° C | 72% | 1013.1 hPa | 0 mm | - | - | - |
| 1777565705 | 6.11° C | 72% | 1013 hPa | 0 mm | - | - | - |
| 1777564806 | 6.67° C | 71% | 1013.4 hPa | 0 mm | - | - | - |
| 1777563905 | 6.67° C | 70% | 1013.5 hPa | 0 mm | - | - | - |
| 1777563006 | 6.67° C | 71% | 1013.8 hPa | 0 mm | - | - | - |
| 1777562106 | 6.67° C | 70% | 1014.1 hPa | 0 mm | - | - | - |
| 1777561211 | 7.22° C | 69% | 1014 hPa | 0 mm | - | - | - |
* Rain latest hour (hover to see other rain measurements)
** Current wind speed in m/s (hover to see current wind gust speed)